Time;durP1;ratioP1;P1;durP2;ratioP2;P2;SDS_P1;SDS_P2;PMS_P1;PMS_P2;Temp;Humidity;BMP_temperature;BMP_pressure;BME280_temperature;BME280_humidity;BME280_pressure;Samples;Min_cycle;Max_cycle;Signal;HPM_P1;HPM_P2
2023/01/10 00:01:27;;;;;;;15.30;3.80;;;;;;;10.36;62.65;101919.48;107304;1270;24227;-49
2023/01/10 00:03:54;;;;;;;11.30;2.80;;;;;;;10.36;62.52;101923.81;107173;1257;22537;-49
2023/01/10 00:06:21;;;;;;;13.20;3.40;;;;;;;10.36;62.42;101929.88;106377;1267;1002471;-49
2023/01/10 00:08:49;;;;;;;15.50;3.50;;;;;;;10.36;62.34;101930.05;107107;1274;25384;-50
2023/01/10 00:14:03;;;;;;;9.10;3.60;;;;;;;10.38;62.18;101917.89;107225;1266;24288;-49
2023/01/10 00:16:30;;;;;;;14.10;3.50;;;;;;;10.38;62.15;101918.07;107017;1273;25392;-49
2023/01/10 00:18:57;;;;;;;12.20;4.00;;;;;;;10.39;62.19;101925.70;107106;1266;25347;-49
2023/01/10 00:21:27;;;;;;;17.00;3.30;;;;;;;10.39;62.05;101925.87;107214;1267;22531;-49
2023/01/10 00:23:56;;;;;;;11.10;3.10;;;;;;;10.40;62.23;101931.08;107062;1274;25312;-49
2023/01/10 00:26:23;;;;;;;13.30;4.40;;;;;;;10.42;62.38;101926.22;107055;1267;25337;-49
2023/01/10 00:28:51;;;;;;;16.20;4.60;;;;;;;10.44;62.62;101925.69;106905;1270;22577;-49
2023/01/10 00:31:18;;;;;;;11.00;3.60;;;;;;;10.45;62.46;101927.24;106844;1273;22520;-49
2023/01/10 00:33:45;;;;;;;13.20;3.10;;;;;;;10.44;62.00;101929.51;107203;1272;22553;-49
2023/01/10 00:36:13;;;;;;;11.30;3.00;;;;;;;10.45;61.83;101931.05;107049;1274;24317;-49
2023/01/10 00:38:40;;;;;;;9.30;2.90;;;;;;;10.45;61.63;101928.96;107130;1270;25334;-49
2023/01/10 00:43:55;;;;;;;10.90;3.10;;;;;;;10.46;61.52;101929.85;107149;1267;25407;-49
2023/01/10 00:43:56;;;;;;;12.00;3.20;;;;;;;10.46;61.12;101919.79;106915;1270;24265;-49
2023/01/10 00:46:25;;;;;;;10.60;2.90;;;;;;;10.46;60.93;101913.71;106803;1273;25398;-49
2023/01/10 00:48:53;;;;;;;18.40;3.50;;;;;;;10.46;60.99;101912.84;107093;1270;25312;-51
2023/01/10 00:51:20;;;;;;;16.20;3.40;;;;;;;10.48;60.97;101906.06;107190;1267;25312;-49
2023/01/10 00:53:47;;;;;;;15.60;3.80;;;;;;;10.48;61.09;101904.50;107057;1274;25389;-49
2023/01/10 00:56:15;;;;;;;12.10;3.30;;;;;;;10.49;61.02;101901.38;107153;1267;25359;-49
2023/01/10 00:58:43;;;;;;;11.70;2.90;;;;;;;10.50;60.92;101898.09;107180;1270;25359;-50
2023/01/10 01:01:10;;;;;;;9.00;2.70;;;;;;;10.52;60.71;101901.90;107188;1270;25472;-51
2023/01/10 01:03:38;;;;;;;16.50;4.60;;;;;;;10.53;60.68;101895.13;107090;1270;25360;-51
2023/01/10 01:06:06;;;;;;;15.70;3.10;;;;;;;10.55;60.45;101888.19;107082;1270;25425;-51
2023/01/10 01:08:33;;;;;;;11.20;3.40;;;;;;;10.56;60.22;101890.44;107114;1271;25220;-49
2023/01/10 01:11:03;;;;;;;12.90;3.60;;;;;;;10.58;60.18;101890.77;107073;1266;25430;-51
2023/01/10 01:13:31;;;;;;;13.70;2.90;;;;;;;10.58;60.29;101882.96;107131;1267;25423;-51
2023/01/10 01:15:58;;;;;;;18.30;3.50;;;;;;;10.59;60.43;101878.28;106816;1266;25529;-51
2023/01/10 01:18:26;;;;;;;12.40;2.90;;;;;;;10.59;60.48;101866.83;107220;1267;22626;-48
2023/01/10 01:20:55;;;;;;;12.60;2.70;;;;;;;10.58;60.24;101865.27;106060;1274;1002985;-49
2023/01/10 01:23:22;;;;;;;8.90;2.60;;;;;;;10.56;60.56;101860.77;107117;1270;24365;-50
2023/01/10 01:25:52;;;;;;;17.60;3.80;;;;;;;10.56;60.93;101856.95;107235;1270;23891;-50
2023/01/10 01:28:20;;;;;;;17.50;3.70;;;;;;;10.56;61.24;101848.79;107153;1272;25340;-51
2023/01/10 01:30:48;;;;;;;18.60;4.10;;;;;;;10.56;61.28;101855.03;107154;1266;24193;-50
2023/01/10 01:33:16;;;;;;;17.50;3.90;;;;;;;10.58;61.42;101857.63;106905;1273;22660;-50
2023/01/10 01:35:44;;;;;;;12.40;3.30;;;;;;;10.58;61.70;101858.16;107263;1272;22527;-50
2023/01/10 01:38:11;;;;;;;24.30;4.20;;;;;;;10.57;61.66;101856.42;107082;1266;25515;-50
2023/01/10 01:40:40;;;;;;;12.10;3.20;;;;;;;10.57;61.05;101854.70;106934;1267;24238;-50
2023/01/10 01:43:26;;;;;;;11.00;2.80;;;;;;;10.58;60.55;101854.16;106800;1266;22520;-51
2023/01/10 01:45:54;;;;;;;16.70;4.10;;;;;;;10.58;60.27;101854.52;107177;1267;22540;-50
2023/01/10 01:48:38;;;;;;;17.10;3.60;;;;;;;10.58;60.23;101853.81;107043;1267;22635;-50
2023/01/10 01:51:17;;;;;;;13.50;4.20;;;;;;;10.60;60.44;101850.34;106980;1270;25494;-49
2023/01/10 01:53:46;;;;;;;18.20;4.80;;;;;;;10.62;60.19;101853.29;106649;1274;22625;-50
2023/01/10 01:56:33;;;;;;;11.40;4.10;;;;;;;10.60;60.24;101851.89;107101;1271;24071;-50
2023/01/10 01:59:04;;;;;;;19.50;4.20;;;;;;;10.60;59.97;101851.38;107138;1274;25472;-51
2023/01/10 02:01:33;;;;;;;15.20;3.80;;;;;;;10.62;60.25;101846.34;107068;1273;25360;-50
2023/01/10 02:04:12;;;;;;;13.60;3.40;;;;;;;10.63;60.47;101847.20;106839;1267;24220;-50
2023/01/10 02:06:39;;;;;;;17.50;4.00;;;;;;;10.63;60.49;101842.01;107169;1267;22692;-50
2023/01/10 02:09:22;;;;;;;12.30;3.30;;;;;;;10.63;60.90;101835.91;107093;1267;23890;-49
2023/01/10 02:11:49;;;;;;;17.90;5.00;;;;;;;10.64;60.78;101838.16;107009;1267;23871;-50
2023/01/10 02:14:16;;;;;;;15.90;4.60;;;;;;;10.63;60.67;101837.98;106708;1267;23198;-50
2023/01/10 02:16:43;;;;;;;15.10;4.00;;;;;;;10.63;60.59;101836.27;106963;1274;22538;-49
2023/01/10 02:19:37;;;;;;;10.20;3.00;;;;;;;10.62;60.83;101834.70;107014;1263;22525;-49
2023/01/10 02:22:43;;;;;;;14.10;3.60;;;;;;;10.61;60.89;101834.02;106416;1282;25312;-49
2023/01/10 02:25:38;;;;;;;13.40;2.90;;;;;;;10.60;60.76;101836.11;106047;1281;25302;-49
2023/01/10 02:28:11;;;;;;;15.00;3.50;;;;;;;10.59;60.66;101835.06;106011;1280;25504;-49
2023/01/10 02:30:41;;;;;;;18.00;5.70;;;;;;;10.59;60.57;101831.60;106136;1281;25470;-49
2023/01/10 02:33:21;;;;;;;12.80;3.90;;;;;;;10.59;60.67;101826.91;106054;1282;25519;-49
2023/01/10 02:36:20;;;;;;;13.10;3.30;;;;;;;10.60;60.93;101829.86;105356;1282;1003747;-49
2023/01/10 02:39:31;;;;;;;20.50;4.30;;;;;;;10.62;61.07;101831.42;105941;1288;25324;-50
2023/01/10 02:42:08;;;;;;;11.60;3.50;;;;;;;10.62;61.15;101822.39;104803;1299;25395;-49
2023/01/10 02:44:51;;;;;;;12.50;3.40;;;;;;;10.63;61.21;101824.65;104997;1298;22561;-49
2023/01/10 02:47:19;;;;;;;12.80;3.70;;;;;;;10.62;60.93;101821.35;104948;1296;25365;-49
2023/01/10 02:49:48;;;;;;;14.80;3.80;;;;;;;10.63;60.74;101822.90;105024;1295;25428;-49
2023/01/10 02:52:20;;;;;;;18.00;4.60;;;;;;;10.65;60.86;101818.55;104691;1301;24410;-49
2023/01/10 02:54:48;;;;;;;21.10;4.60;;;;;;;10.69;61.22;101814.20;104993;1295;22573;-49
2023/01/10 02:57:33;;;;;;;21.20;3.90;;;;;;;10.71;61.35;101813.67;104920;1295;24251;-49
2023/01/10 03:00:13;;;;;;;17.20;4.60;;;;;;;10.71;61.32;101808.64;104900;1289;24250;-49
2023/01/10 03:02:44;;;;;;;19.20;4.30;;;;;;;10.71;61.42;101804.13;105956;1283;24316;-49
2023/01/10 03:05:21;;;;;;;11.70;3.80;;;;;;;10.71;61.57;101806.55;105976;1282;25397;-49
2023/01/10 03:07:54;;;;;;;11.30;3.10;;;;;;;10.72;61.25;101800.83;105903;1281;25419;-49
2023/01/10 03:10:48;;;;;;;10.90;3.00;;;;;;;10.73;61.17;101795.09;105892;1286;25797;-49
2023/01/10 03:13:44;;;;;;;19.60;3.60;;;;;;;10.72;61.01;101789.70;105909;1283;24092;-49
2023/01/10 03:16:14;;;;;;;11.50;3.00;;;;;;;10.71;61.06;101779.66;105890;1287;25353;-49
2023/01/10 03:18:48;;;;;;;15.10;4.40;;;;;;;10.72;61.40;101786.41;106139;1274;22527;-49
2023/01/10 03:21:15;;;;;;;23.80;4.20;;;;;;;10.72;61.50;101781.20;107283;1267;22559;-49
2023/01/10 03:23:42;;;;;;;17.00;5.70;;;;;;;10.73;61.67;101768.71;107114;1271;25465;-49
2023/01/10 03:26:09;;;;;;;13.10;3.80;;;;;;;10.73;61.79;101769.92;107164;1270;25348;-49
2023/01/10 03:28:42;;;;;;;14.60;3.70;;;;;;;10.74;62.01;101769.58;106921;1270;25373;-49
2023/01/10 03:31:19;;;;;;;12.00;3.90;;;;;;;10.73;62.01;101769.40;106891;1267;25365;-51
2023/01/10 03:33:47;;;;;;;14.10;3.50;;;;;;;10.73;62.20;101772.52;106927;1267;25322;-51
2023/01/10 03:36:25;;;;;;;21.00;4.10;;;;;;;10.74;62.28;101771.31;106967;1267;25389;-51
2023/01/10 03:38:56;;;;;;;14.70;3.50;;;;;;;10.75;62.42;101766.97;106665;1267;345366;-51
2023/01/10 03:41:49;;;;;;;17.70;4.20;;;;;;;10.75;62.45;101773.39;106874;1266;25316;-51
2023/01/10 03:44:44;;;;;;;16.30;4.10;;;;;;;10.76;62.74;101779.45;106977;1267;25508;-51
2023/01/10 03:47:17;;;;;;;14.70;4.10;;;;;;;10.76;62.79;101782.23;106565;1267;25466;-50
2023/01/10 03:49:47;;;;;;;18.80;4.90;;;;;;;10.76;62.84;101775.63;106919;1267;26543;-51
2023/01/10 03:52:16;;;;;;;16.90;3.70;;;;;;;10.76;62.82;101770.58;107074;1267;22534;-50
2023/01/10 03:54:43;;;;;;;17.80;4.30;;;;;;;10.77;62.93;101770.08;107126;1274;22542;-49
2023/01/10 03:57:18;;;;;;;13.90;3.50;;;;;;;10.80;62.85;101765.02;106469;1278;22525;-50
2023/01/10 03:59:45;;;;;;;19.90;4.40;;;;;;;10.83;62.78;101761.70;106560;1276;25478;-51
2023/01/10 04:02:12;;;;;;;16.10;4.30;;;;;;;10.85;62.84;101757.17;106514;1274;25368;-50
2023/01/10 04:04:40;;;;;;;19.00;5.70;;;;;;;10.85;62.81;101757.00;106619;1270;24208;-50
2023/01/10 04:07:07;;;;;;;17.80;4.20;;;;;;;10.87;63.01;101751.09;106032;1270;1002997;-50
2023/01/10 04:09:35;;;;;;;12.20;3.80;;;;;;;10.88;63.06;101747.77;106687;1273;25462;-50
2023/01/10 04:12:03;;;;;;;18.10;4.40;;;;;;;10.89;62.99;101743.95;106654;1270;25384;-50
2023/01/10 04:14:31;;;;;;;16.70;4.50;;;;;;;10.91;63.18;101743.76;106312;1270;25529;-50
2023/01/10 04:16:59;;;;;;;19.40;4.40;;;;;;;10.92;63.39;101746.35;106724;1270;25325;-50
2023/01/10 04:19:26;;;;;;;14.40;4.60;;;;;;;10.94;63.56;101746.69;106692;1270;25325;-50
2023/01/10 04:21:53;;;;;;;22.30;5.10;;;;;;;10.96;63.49;101740.08;106575;1270;25332;-50
2023/01/10 04:24:20;;;;;;;14.60;4.00;;;;;;;10.97;63.46;101743.02;106516;1270;25469;-49
2023/01/10 04:26:47;;;;;;;17.20;4.20;;;;;;;10.97;63.44;101739.37;106788;1271;25393;-50
2023/01/10 04:29:14;;;;;;;19.00;4.90;;;;;;;10.98;63.46;101739.55;107015;1266;25479;-50
2023/01/10 04:31:41;;;;;;;17.50;5.30;;;;;;;10.99;63.57;101736.41;107078;1270;25366;-50
2023/01/10 04:34:08;;;;;;;15.90;4.30;;;;;;;11.00;63.67;101728.59;107017;1267;25318;-50
2023/01/10 04:36:36;;;;;;;21.80;5.50;;;;;;;11.01;63.67;101732.05;107107;1270;25373;-50
2023/01/10 04:39:03;;;;;;;25.80;5.70;;;;;;;11.01;63.73;101733.27;106859;1271;25426;-50
2023/01/10 04:41:30;;;;;;;20.10;5.40;;;;;;;11.02;63.89;101731.35;107102;1267;25325;-50
2023/01/10 04:43:58;;;;;;;17.10;4.20;;;;;;;11.03;63.92;101733.60;106989;1270;25442;-51
2023/01/10 04:46:25;;;;;;;23.80;5.00;;;;;;;11.03;64.05;101731.52;107091;1267;25427;-49
2023/01/10 04:48:52;;;;;;;14.70;4.90;;;;;;;11.03;64.14;101728.56;107151;1266;25395;-50
2023/01/10 04:51:19;;;;;;;24.20;5.20;;;;;;;11.03;64.07;101732.38;106969;1269;24239;-50
2023/01/10 04:53:47;;;;;;;19.70;4.80;;;;;;;11.04;64.21;101726.81;106991;1269;25432;-50
2023/01/10 10:11:43;;;;;;;23.60;5.50;;;;;;;9.16;83.66;101749.80;105156;1289;559988;-58
2023/01/10 10:14:43;;;;;;;20.10;6.70;;;;;;;10.23;76.97;101735.16;105933;1282;22695;-55
2023/01/10 10:17:26;;;;;;;27.20;7.00;;;;;;;10.43;75.73;101737.66;105623;1282;25356;-57
2023/01/10 10:20:15;;;;;;;17.20;5.00;;;;;;;10.54;75.04;101731.70;105712;1288;24269;-56
2023/01/10 10:23:07;;;;;;;19.50;6.50;;;;;;;10.62;74.47;101728.16;106129;1280;22572;-57
2023/01/10 10:25:57;;;;;;;21.10;5.80;;;;;;;10.70;74.17;101726.56;106023;1283;448179;-57
2023/01/10 10:28:30;;;;;;;22.00;6.30;;;;;;;10.76;73.84;101728.25;106243;1280;25352;-57
2023/01/10 10:31:36;;;;;;;20.30;5.50;;;;;;;10.81;73.31;101735.85;106305;1285;25352;-57
2023/01/10 10:34:15;;;;;;;21.70;6.30;;;;;;;10.85;72.30;101734.60;105603;1291;23893;-58
2023/01/10 10:36:46;;;;;;;17.00;5.20;;;;;;;10.86;70.95;101734.94;105510;1291;25366;-57
2023/01/10 10:39:20;;;;;;;18.70;4.90;;;;;;;10.85;70.11;101734.42;105625;1286;22593;-57
2023/01/10 10:41:48;;;;;;;24.60;5.70;;;;;;;10.83;69.59;101734.27;105575;1293;25284;-56
2023/01/10 10:44:46;;;;;;;15.30;4.60;;;;;;;10.82;69.44;101734.98;105616;1287;22543;-56
2023/01/10 10:47:19;;;;;;;22.80;5.60;;;;;;;10.81;69.09;101741.06;105226;1293;25629;-57
2023/01/10 10:49:59;;;;;;;14.10;3.90;;;;;;;10.81;69.13;101742.80;105007;1295;25446;-57
2023/01/10 10:52:33;;;;;;;23.50;5.70;;;;;;;10.83;69.07;101739.14;104358;1294;1003118;-57
2023/01/10 10:55:01;;;;;;;18.60;5.30;;;;;;;10.85;69.00;101741.89;105681;1292;25509;-56
2023/01/10 10:57:30;;;;;;;16.50;5.60;;;;;;;10.87;69.05;101741.36;105711;1292;25376;-57
2023/01/10 10:59:57;;;;;;;25.50;5.90;;;;;;;10.89;69.03;101738.56;105797;1288;24247;-57
2023/01/10 11:02:49;;;;;;;20.70;5.80;;;;;;;10.91;69.22;101732.13;105775;1289;25492;-57
2023/01/10 11:05:22;;;;;;;19.10;5.40;;;;;;;10.94;69.44;101734.20;105581;1292;25343;-57
2023/01/10 11:08:00;;;;;;;23.70;6.20;;;;;;;10.97;69.47;101730.88;105646;1287;22550;-57
2023/01/10 11:10:35;;;;;;;21.70;5.70;;;;;;;10.99;69.43;101734.15;105440;1289;25364;-57
2023/01/10 11:13:05;;;;;;;18.60;4.60;;;;;;;11.01;69.34;101733.62;105979;1284;25512;-57
2023/01/10 11:15:35;;;;;;;13.00;4.80;;;;;;;11.02;69.33;101737.25;105909;1285;25392;-57
2023/01/10 11:18:12;;;;;;;24.70;6.80;;;;;;;11.05;69.34;101743.48;106009;1282;25530;-57
2023/01/10 11:20:59;;;;;;;20.00;5.20;;;;;;;10.91;69.81;101744.97;105959;1283;25443;-57
2023/01/10 11:23:32;;;;;;;21.40;5.70;;;;;;;11.05;69.39;101743.30;105880;1283;22687;-57
2023/01/10 11:25:59;;;;;;;15.10;4.70;;;;;;;11.09;69.37;101743.45;106442;1275;25363;-57
2023/01/10 11:28:29;;;;;;;17.60;6.00;;;;;;;11.12;69.37;101742.73;106323;1276;25503;-58
2023/01/10 11:30:56;;;;;;;23.80;6.20;;;;;;;11.14;69.62;101747.56;106309;1277;23890;-57
2023/01/10 11:33:28;;;;;;;22.60;6.30;;;;;;;11.16;69.86;101750.85;106539;1271;25426;-57
2023/01/10 11:36:01;;;;;;;29.70;7.40;;;;;;;11.19;70.02;101751.52;106551;1270;22638;-57
2023/01/10 11:38:29;;;;;;;31.00;7.60;;;;;;;11.20;70.40;101754.64;106804;1267;22579;-57
2023/01/10 11:41:03;;;;;;;24.00;6.90;;;;;;;11.24;70.71;101755.13;106066;1273;1002995;-57
2023/01/10 11:43:37;;;;;;;23.50;7.00;;;;;;;11.29;70.66;101758.20;106445;1276;25341;-59
2023/01/10 11:46:16;;;;;;;25.10;6.30;;;;;;;11.35;70.67;101756.93;106660;1274;25281;-57
2023/01/10 11:48:46;;;;;;;22.50;6.40;;;;;;;11.43;70.59;101750.45;106640;1270;25373;-58
2023/01/10 11:51:43;;;;;;;31.30;6.70;;;;;;;11.49;70.49;101750.55;106800;1270;25369;-56
2023/01/10 11:54:13;;;;;;;31.30;7.00;;;;;;;11.54;70.33;101747.20;106792;1270;25385;-56
2023/01/10 11:56:42;;;;;;;26.80;6.10;;;;;;;11.58;70.25;101745.94;106736;1273;24296;-56
2023/01/10 11:59:14;;;;;;;25.00;5.70;;;;;;;11.57;70.28;101745.27;106762;1270;25416;-56
2023/01/10 12:01:43;;;;;;;21.00;6.60;;;;;;;11.40;70.96;101745.42;107133;1267;22620;-56
2023/01/10 12:04:17;;;;;;;26.20;5.50;;;;;;;11.40;71.04;101750.13;106865;1254;24272;-56
2023/01/10 12:06:45;;;;;;;26.80;5.40;;;;;;;11.43;70.95;101751.32;107038;1269;26124;-56
2023/01/10 12:09:39;;;;;;;34.10;6.90;;;;;;;11.47;70.84;101751.79;107076;1267;22527;-56
2023/01/10 12:12:18;;;;;;;27.80;6.60;;;;;;;11.52;70.71;101751.40;106850;1270;25484;-56
2023/01/10 12:14:45;;;;;;;22.00;6.00;;;;;;;11.55;70.55;101749.80;107104;1271;24306;-56
2023/01/10 12:17:24;;;;;;;22.40;6.80;;;;;;;11.57;70.54;101748.74;106304;1267;1003537;-56
2023/01/10 12:19:52;;;;;;;23.10;6.00;;;;;;;11.58;70.42;101748.21;107023;1267;25345;-56
2023/01/10 12:22:42;;;;;;;28.80;7.60;;;;;;;11.59;70.33;101757.05;107126;1267;25486;-56
2023/01/10 12:25:39;;;;;;;17.50;6.20;;;;;;;11.82;69.47;101750.59;107068;1267;25519;-56
2023/01/10 12:28:24;;;;;;;22.70;6.20;;;;;;;11.89;69.07;101755.90;107126;1267;24248;-56
2023/01/10 12:30:54;;;;;;;23.80;5.90;;;;;;;11.91;68.97;101752.94;106920;1267;22676;-56
2023/01/10 12:33:23;;;;;;;25.30;6.20;;;;;;;11.91;68.86;101750.14;106977;1267;22531;-56
2023/01/10 12:35:53;;;;;;;24.40;5.90;;;;;;;11.91;68.80;101752.58;107132;1267;22536;-56
2023/01/10 12:44:13;;;;;;;;;;;;;;;11.92;68.75;101751.00;106467;1280;24249;-56
2023/01/10 12:46:49;;;;;;;21.70;7.20;;;;;;;11.92;68.70;101746.83;106502;1274;25487;-56
2023/01/10 12:49:59;;;;;;;26.70;6.00;;;;;;;11.92;68.61;101751.17;106505;1274;25312;-56
2023/01/10 12:52:30;;;;;;;21.60;6.30;;;;;;;11.92;68.50;101750.30;106469;1279;22611;-56
2023/01/10 12:54:57;;;;;;;30.00;7.70;;;;;;;11.93;68.38;101752.73;106505;1274;25378;-56
2023/01/10 12:57:34;;;;;;;24.70;6.00;;;;;;;11.93;68.30;101757.77;106479;1273;25664;-56
2023/01/10 13:00:04;;;;;;;23.90;6.30;;;;;;;11.95;68.18;101762.80;106374;1273;22540;-56
2023/01/10 13:02:42;;;;;;;25.40;6.00;;;;;;;11.95;68.21;101768.53;106444;1273;22548;-56
2023/01/10 13:05:27;;;;;;;28.20;7.20;;;;;;;11.95;68.23;101768.35;106493;1274;22534;-56
2023/01/10 13:08:12;;;;;;;23.00;6.40;;;;;;;11.96;68.24;101768.86;106529;1274;22958;-56
2023/01/10 13:10:41;;;;;;;27.90;6.20;;;;;;;11.97;68.27;101761.91;106327;1277;25350;-56
2023/01/10 13:13:16;;;;;;;19.10;6.00;;;;;;;11.97;68.19;101762.61;106468;1273;25686;-56
2023/01/10 13:15:48;;;;;;;23.40;5.70;;;;;;;11.98;68.29;101763.96;106485;1273;25352;-56
2023/01/10 13:18:24;;;;;;;23.50;6.90;;;;;;;11.97;68.21;101765.54;106519;1275;22563;-56
2023/01/10 13:21:07;;;;;;;23.80;6.10;;;;;;;11.96;68.31;101767.29;106929;1270;25239;-56
2023/01/10 13:23:47;;;;;;;23.70;6.80;;;;;;;11.94;67.84;101770.46;106860;1270;24241;-56
2023/01/10 13:26:14;;;;;;;21.40;6.20;;;;;;;11.87;67.24;101774.35;107050;1267;25552;-56
2023/01/10 13:29:10;;;;;;;19.10;5.90;;;;;;;11.79;67.14;101780.52;106869;1270;25401;-56
2023/01/10 13:31:37;;;;;;;19.70;5.90;;;;;;;11.68;67.08;101776.63;106393;1278;22548;-56
2023/01/10 13:34:06;;;;;;;23.70;6.50;;;;;;;11.61;67.31;101782.07;106250;1277;24259;-58
2023/01/10 13:36:38;;;;;;;19.80;7.00;;;;;;;11.54;67.47;101773.63;106099;1272;25536;-57
2023/01/10 13:39:07;;;;;;;;;;;;;;;11.48;67.70;101777.50;106091;1276;25352;-58
2023/01/10 13:45:10;;;;;;;24.50;7.00;;;;;;;11.41;67.98;101768.36;106072;1277;24376;-56
2023/01/10 13:47:37;;;;;;;24.60;6.40;;;;;;;11.37;68.04;101767.86;105760;1283;25373;-56
2023/01/10 13:50:41;;;;;;;22.70;6.30;;;;;;;11.32;68.15;101765.83;105921;1267;23894;-56
2023/01/10 13:53:11;;;;;;;21.30;5.60;;;;;;;11.27;68.38;101768.98;105902;1282;25510;-56
2023/01/10 13:55:41;;;;;;;16.50;5.70;;;;;;;11.25;68.65;101773.52;105953;1283;25490;-56
2023/01/10 13:58:08;;;;;;;22.30;6.40;;;;;;;11.24;68.79;101772.85;105913;1283;25466;-56
2023/01/10 20:01:22;;;;;;;30.80;10.10;;;;;;;7.76;75.55;102098.11;105108;1297;24270;-59
2023/01/10 20:03:49;;;;;;;27.40;9.90;;;;;;;7.84;74.78;102103.37;106008;1283;24350;-59
2023/01/10 20:06:19;;;;;;;32.90;9.90;;;;;;;7.90;74.23;102099.98;105728;1287;25889;-57
2023/01/10 20:08:47;;;;;;;31.30;12.00;;;;;;;7.96;73.65;102104.55;106561;1273;375943;-57
2023/01/10 20:11:14;;;;;;;33.90;9.50;;;;;;;8.00;73.29;102109.08;106729;1274;25485;-58
2023/01/10 20:13:43;;;;;;;27.50;9.60;;;;;;;8.06;73.01;102109.12;106769;1276;25401;-58
2023/01/10 20:16:12;;;;;;;37.40;10.40;;;;;;;8.11;72.59;102106.08;106864;1272;25422;-58
2023/01/10 20:18:40;;;;;;;26.50;10.50;;;;;;;8.15;72.12;102111.11;106712;1270;22551;-57
2023/01/10 20:21:08;;;;;;;27.60;9.90;;;;;;;8.18;71.71;102112.02;106704;1275;25383;-57
2023/01/10 20:23:36;;;;;;;31.90;10.80;;;;;;;8.21;71.36;102103.05;106776;1270;22539;-57
2023/01/10 20:26:15;;;;;;;28.50;8.70;;;;;;;8.24;70.89;102100.66;106599;1270;25416;-57
2023/01/10 20:28:42;;;;;;;27.90;9.40;;;;;;;8.27;70.55;102096.91;106786;1270;24286;-57
2023/01/10 20:31:19;;;;;;;20.20;8.10;;;;;;;8.27;70.08;102093.63;106685;1275;25497;-59
2023/01/10 20:33:46;;;;;;;18.80;7.50;;;;;;;8.26;69.74;102100.00;106396;1277;25348;-57
2023/01/10 20:36:15;;;;;;;27.40;8.80;;;;;;;8.15;69.64;102100.06;106793;1270;25471;-57
2023/01/10 20:38:43;;;;;;;30.60;11.10;;;;;;;7.98;70.06;102101.27;106695;1270;22529;-57
2023/01/10 20:41:14;;;;;;;24.90;9.40;;;;;;;7.92;70.23;102102.23;106890;1270;25427;-57
2023/01/10 20:43:42;;;;;;;33.80;10.20;;;;;;;7.92;70.50;102101.20;106071;1270;1016277;-58
2023/01/10 20:46:20;;;;;;;30.40;9.20;;;;;;;8.12;69.99;102102.27;106890;1272;24198;-57
2023/01/10 20:48:47;;;;;;;35.40;10.90;;;;;;;8.19;69.59;102107.70;106845;1270;25383;-57
2023/01/10 20:51:16;;;;;;;29.30;9.00;;;;;;;8.23;69.44;102114.31;106406;1262;25348;-57
2023/01/10 20:53:46;;;;;;;24.20;7.90;;;;;;;8.23;68.92;102125.04;106598;1277;25383;-57
2023/01/10 20:56:19;;;;;;;29.30;9.20;;;;;;;8.23;68.62;102130.39;105945;1262;1003577;-57
2023/01/10 20:58:46;;;;;;;23.10;8.40;;;;;;;8.23;68.40;102125.20;106368;1270;24236;-57
2023/01/10 21:01:14;;;;;;;31.70;9.80;;;;;;;8.24;68.30;102122.79;106962;1269;25421;-57
2023/01/10 21:03:56;;;;;;;;;;;;;;;8.23;68.36;102127.80;106741;1270;25451;-57
2023/01/10 21:06:23;;;;;;;24.90;10.10;;;;;;;8.23;68.33;102129.52;106805;1270;22642;-58
2023/01/10 21:08:51;;;;;;;22.50;8.30;;;;;;;8.21;68.02;102129.33;106674;1275;25486;-57
2023/01/10 21:11:19;;;;;;;27.90;9.10;;;;;;;8.21;67.67;102135.73;106675;1270;25376;-57
2023/01/10 21:13:46;;;;;;;26.60;9.40;;;;;;;8.19;67.71;102138.83;106729;1271;22538;-57
2023/01/10 21:16:15;;;;;;;27.50;9.20;;;;;;;8.18;67.49;102140.54;106694;1272;25396;-57
2023/01/10 21:18:43;;;;;;;27.10;8.10;;;;;;;8.17;67.41;102146.77;105974;1270;1003054;-57
2023/01/10 21:21:12;;;;;;;26.60;9.40;;;;;;;8.16;67.21;102147.95;106911;1270;25571;-57
2023/01/10 21:23:41;;;;;;;29.90;9.40;;;;;;;8.16;67.39;102141.03;106794;1270;25447;-57
2023/01/10 21:26:09;;;;;;;25.90;8.50;;;;;;;8.17;67.43;102140.35;106790;1270;22596;-58
2023/01/10 21:28:40;;;;;;;30.90;9.20;;;;;;;8.18;67.27;102141.91;106771;1274;23905;-57
2023/01/10 21:31:09;;;;;;;23.60;8.60;;;;;;;8.19;67.09;102136.91;106458;1270;24250;-57
2023/01/10 21:33:36;;;;;;;24.30;7.90;;;;;;;8.17;66.78;102143.64;106839;1270;25363;-57
2023/01/10 21:36:04;;;;;;;24.20;8.00;;;;;;;8.15;66.62;102158.66;106843;1270;25353;-57
2023/01/10 21:38:32;;;;;;;34.70;9.50;;;;;;;8.13;66.62;102158.64;106831;1270;22534;-57
2023/01/10 21:41:08;;;;;;;38.00;9.60;;;;;;;8.12;66.95;102160.17;106877;1270;26688;-57
2023/01/10 21:43:35;;;;;;;25.80;8.70;;;;;;;8.11;67.10;102156.37;106533;1273;22584;-57
2023/01/10 21:46:02;;;;;;;25.90;8.10;;;;;;;8.10;66.85;102153.94;106690;1273;25472;-57
2023/01/10 21:48:29;;;;;;;26.20;9.20;;;;;;;8.08;66.65;102148.02;106812;1271;25321;-57
2023/01/10 21:50:56;;;;;;;23.00;8.50;;;;;;;8.07;66.59;102153.39;106908;1270;24388;-57
2023/01/10 21:53:24;;;;;;;32.30;10.20;;;;;;;8.06;66.75;102149.58;106753;1270;25373;-58
2023/01/10 21:55:58;;;;;;;25.40;9.30;;;;;;;8.06;66.87;102148.02;106544;1271;23436;-58
2023/01/10 21:58:26;;;;;;;31.30;8.60;;;;;;;8.06;66.61;102149.05;106728;1271;25297;-58
2023/01/10 22:00:55;;;;;;;32.30;9.20;;;;;;;8.05;66.69;102152.67;106342;1278;25363;-57
2023/01/10 22:03:25;;;;;;;;;;;;;;;8.04;66.82;102156.29;106516;1270;25315;-57
2023/01/10 22:05:53;;;;;;;24.10;8.40;;;;;;;8.05;66.69;102151.12;106747;1270;25367;-58
2023/01/10 22:08:20;;;;;;;28.30;8.20;;;;;;;8.03;66.46;102149.37;106044;1270;1003107;-57
2023/01/10 22:10:47;;;;;;;29.90;9.10;;;;;;;8.01;66.28;102151.24;106752;1275;22521;-57
2023/01/10 22:13:14;;;;;;;26.50;9.10;;;;;;;7.99;66.51;102162.30;106916;1270;22526;-57
2023/01/10 22:15:43;;;;;;;24.40;8.20;;;;;;;8.00;66.58;102159.36;106784;1270;25348;-57
2023/01/10 22:18:10;;;;;;;27.30;9.40;;;;;;;8.01;66.46;102154.02;105996;1273;1003029;-57
2023/01/10 22:20:37;;;;;;;22.60;8.20;;;;;;;7.96;66.42;102157.92;106856;1270;24252;-57
2023/01/10 22:23:04;;;;;;;23.70;8.50;;;;;;;7.81;66.89;102159.64;106759;1275;25494;-57
2023/01/10 22:25:31;;;;;;;25.00;9.00;;;;;;;7.95;66.46;102163.11;106801;1270;25373;-57
